Time;durP1;ratioP1;P1;durP2;ratioP2;P2;SDS_P1;SDS_P2;PMS_P1;PMS_P2;Temp;Humidity;BMP_temperature;BMP_pressure;BME280_temperature;BME280_humidity;BME280_pressure;Samples;Min_cycle;Max_cycle;Signal;HPM_P1;HPM_P2
2022/01/18 00:01:26;;;;;;;11.35;3.15;;;9.40;84.30;;;;;;5077523;28;20370;-83
2022/01/18 00:03:55;;;;;;;16.70;3.45;;;9.50;84.30;;;;;;5081017;28;20021;-82
2022/01/18 00:06:21;;;;;;;15.75;2.78;;;9.40;84.20;;;;;;5065332;28;20027;-84
2022/01/18 00:08:47;;;;;;;11.65;2.75;;;9.50;84.10;;;;;;5064115;28;20387;-82
2022/01/18 00:11:13;;;;;;;12.75;2.78;;;9.50;84.20;;;;;;5067854;28;20051;-82
2022/01/18 00:13:42;;;;;;;15.00;3.13;;;9.50;84.30;;;;;;5067212;28;20021;-82
2022/01/18 00:16:23;;;;;;;13.05;2.92;;;9.50;84.30;;;;;;5067344;28;20463;-82
2022/01/18 00:18:51;;;;;;;17.77;2.83;;;9.50;84.40;;;;;;5062919;28;20099;-83
2022/01/18 00:24:01;;;;;;;14.02;3.33;;;9.50;84.50;;;;;;5068239;28;20491;-84
2022/01/18 00:26:30;;;;;;;16.83;3.40;;;9.50;84.40;;;;;;5062486;28;20100;-82
2022/01/18 00:29:03;;;;;;;14.02;3.00;;;9.50;84.50;;;;;;5068811;28;20022;-84
2022/01/18 00:34:09;;;;;;;12.35;2.65;;;9.50;84.40;;;;;;5066005;28;20024;-83
2022/01/18 00:36:41;;;;;;;13.93;2.65;;;9.50;84.50;;;;;;5067523;28;20438;-83
2022/01/18 00:39:08;;;;;;;;;;;9.60;84.40;;;;;;5062202;28;20016;-83
2022/01/18 00:41:34;;;;;;;14.18;2.75;;;9.60;84.30;;;;;;5069498;28;19916;-83
2022/01/18 00:44:00;;;;;;;10.93;2.70;;;9.50;84.50;;;;;;5070242;28;20379;-82
2022/01/18 00:46:25;;;;;;;10.07;2.65;;;9.40;84.60;;;;;;5070460;28;20027;-83
2022/01/18 00:48:54;;;;;;;10.68;2.78;;;9.50;84.70;;;;;;5065819;28;20028;-81
2022/01/18 00:51:20;;;;;;;14.63;3.22;;;9.50;84.70;;;;;;5065964;28;20028;-82
2022/01/18 00:53:46;;;;;;;14.43;3.00;;;9.50;84.70;;;;;;5069930;28;20029;-80
2022/01/18 00:58:43;;;;;;;16.90;3.40;;;9.50;84.60;;;;;;5062686;28;20036;-81
2022/01/18 01:01:10;;;;;;;13.30;3.60;;;9.40;84.50;;;;;;5064266;28;20024;-82
2022/01/18 01:03:36;;;;;;;13.15;3.58;;;9.40;84.60;;;;;;5067233;28;20025;-82
2022/01/18 01:06:04;;;;;;;12.82;3.25;;;9.40;84.70;;;;;;5064442;28;20424;-82
2022/01/18 01:08:29;;;;;;;12.23;3.20;;;9.40;84.70;;;;;;5057753;28;20112;-81
2022/01/18 01:10:56;;;;;;;11.80;2.95;;;9.40;84.70;;;;;;5065769;28;20099;-81
2022/01/18 01:13:22;;;;;;;13.15;2.83;;;9.40;84.70;;;;;;5069415;28;20020;-81
2022/01/18 01:18:46;;;;;;;12.82;3.35;;;9.40;84.60;;;;;;5070305;28;20418;-81
2022/01/18 01:43:23;;;;;;;16.50;3.70;;;9.40;84.90;;;;;;5062192;28;20035;-81
2022/01/18 01:45:50;;;;;;;16.50;2.90;;;9.40;84.80;;;;;;5061700;28;20033;-82
2022/01/18 01:48:17;;;;;;;12.43;2.70;;;9.30;84.80;;;;;;5069523;28;20017;-82
2022/01/18 01:51:16;;;;;;;16.23;3.22;;;9.30;85.00;;;;;;5059512;28;20033;-81
2022/01/18 01:53:35;;;;;;;13.50;3.67;;;9.30;85.00;;;;;;5064069;28;20039;-81
2022/01/18 01:56:01;;;;;;;14.10;3.15;;;9.30;85.00;;;;;;5063828;28;20091;-81
2022/01/18 01:58:28;;;;;;;12.65;3.03;;;9.30;85.00;;;;;;5070007;28;20025;-81
2022/01/18 02:00:56;;;;;;;12.80;2.65;;;9.40;85.00;;;;;;5070597;28;20432;-81
2022/01/18 02:03:22;;;;;;;16.55;2.65;;;9.40;85.00;;;;;;5074424;28;20185;-80
2022/01/18 02:05:48;;;;;;;16.88;3.97;;;9.40;84.80;;;;;;5064103;28;20029;-80
2022/01/18 02:08:14;;;;;;;12.63;3.17;;;9.40;84.70;;;;;;5072706;28;20028;-81
2022/01/18 02:10:41;;;;;;;13.07;2.85;;;9.40;84.70;;;;;;5069993;28;20040;-81
2022/01/18 02:13:08;;;;;;;15.02;2.78;;;9.50;84.70;;;;;;5067444;28;20029;-81
2022/01/18 02:15:41;;;;;;;12.02;2.80;;;9.40;84.60;;;;;;5066556;28;20404;-81
2022/01/18 02:23:36;;;;;;;15.02;3.65;;;9.50;84.70;;;;;;5071060;28;20124;-81
2022/01/18 02:26:02;;;;;;;13.52;3.28;;;9.50;84.70;;;;;;5069360;28;20016;-80
2022/01/18 02:28:28;;;;;;;14.57;3.45;;;9.50;84.60;;;;;;5064560;28;20028;-80
2022/01/18 02:30:54;;;;;;;14.00;3.33;;;9.50;84.70;;;;;;5071678;28;20417;-81
2022/01/18 02:33:20;;;;;;;14.10;3.15;;;9.50;84.70;;;;;;5071421;28;20029;-80
2022/01/18 02:35:47;;;;;;;16.55;3.83;;;9.40;84.70;;;;;;5059009;28;20028;-80
2022/01/18 02:38:13;;;;;;;12.07;2.90;;;9.40;84.60;;;;;;5071319;28;20509;-80
2022/01/18 02:40:39;;;;;;;15.00;3.17;;;9.40;84.60;;;;;;5070379;28;20054;-80
2022/01/18 02:43:55;;;;;;;13.88;3.47;;;9.40;84.60;;;;;;5070223;28;20040;-80
2022/01/18 02:45:56;;;;;;;16.48;4.00;;;9.40;84.60;;;;;;5058970;28;20032;-81
2022/01/18 02:48:22;;;;;;;20.13;4.05;;;9.30;84.50;;;;;;5068460;28;20170;-82
2022/01/18 02:50:49;;;;;;;17.15;3.95;;;9.30;84.60;;;;;;5071918;28;21999;-82
2022/01/18 02:53:16;;;;;;;14.05;3.60;;;9.30;84.70;;;;;;5067849;28;20490;-81
2022/01/18 02:55:49;;;;;;;15.40;3.70;;;9.30;84.80;;;;;;5065124;28;20025;-81
2022/01/18 02:58:23;;;;;;;17.70;3.10;;;9.20;84.80;;;;;;5072239;28;20483;-83
2022/01/18 03:03:31;;;;;;;18.65;3.75;;;9.20;84.90;;;;;;5071397;28;20020;-80
2022/01/18 03:05:57;;;;;;;16.63;3.70;;;9.30;85.10;;;;;;5060323;28;20632;-80
2022/01/18 03:08:24;;;;;;;18.88;3.85;;;9.30;85.00;;;;;;5065553;28;20179;-81
2022/01/18 03:10:50;;;;;;;20.38;4.35;;;9.30;84.80;;;;;;5063555;28;20123;-81
2022/01/18 03:13:17;;;;;;;15.23;3.65;;;9.30;84.80;;;;;;5068395;28;20128;-83
2022/01/18 03:15:43;;;;;;;15.00;3.65;;;9.30;84.80;;;;;;5066971;28;20472;-81
2022/01/18 03:18:09;;;;;;;11.57;3.05;;;9.30;84.80;;;;;;5072722;28;20490;-82
2022/01/18 03:20:36;;;;;;;17.90;3.83;;;9.30;84.80;;;;;;5065866;28;20116;-82
2022/01/18 03:23:02;;;;;;;14.60;3.95;;;9.30;84.90;;;;;;5072618;28;20034;-84
2022/01/18 03:25:38;;;;;;;12.77;3.45;;;9.30;84.80;;;;;;5083437;28;20054;-84
2022/01/18 03:28:06;;;;;;;11.63;3.30;;;9.40;84.70;;;;;;5066248;28;20035;-84
2022/01/18 03:30:38;;;;;;;14.80;3.38;;;9.40;84.60;;;;;;5066785;28;20054;-84
2022/01/18 03:33:05;;;;;;;;;;;9.40;84.60;;;;;;5067239;28;20040;-83
2022/01/18 03:35:30;;;;;;;10.10;2.80;;;9.40;84.60;;;;;;5061149;28;19958;-83
2022/01/18 03:37:56;;;;;;;9.75;3.28;;;9.30;84.70;;;;;;5064719;28;20024;-83
2022/01/18 03:40:23;;;;;;;15.40;3.90;;;9.30;84.80;;;;;;5058858;28;20079;-81
2022/01/18 03:42:49;;;;;;;14.63;3.28;;;9.30;84.90;;;;;;5066655;28;20032;-81
2022/01/18 03:45:23;;;;;;;13.70;3.35;;;9.30;84.90;;;;;;5065063;28;20028;-82
2022/01/18 03:47:50;;;;;;;11.57;3.28;;;9.30;84.90;;;;;;5061909;28;20442;-82
2022/01/18 03:50:16;;;;;;;14.25;3.20;;;9.30;84.70;;;;;;5068238;28;20032;-81
2022/01/18 03:52:44;;;;;;;15.30;3.28;;;9.30;84.80;;;;;;5071613;28;20037;-81
2022/01/18 03:55:11;;;;;;;14.07;3.35;;;9.30;84.80;;;;;;5066548;28;20014;-82
2022/01/18 03:57:37;;;;;;;12.10;3.08;;;9.30;84.80;;;;;;5066715;28;20048;-82
2022/01/18 04:00:09;;;;;;;14.02;3.28;;;9.30;84.80;;;;;;5066029;28;20052;-81
2022/01/18 04:02:35;;;;;;;15.02;3.50;;;9.30;84.80;;;;;;5058383;28;20572;-81
2022/01/18 04:05:02;;;;;;;16.05;3.53;;;9.20;84.80;;;;;;5070348;28;20021;-81
2022/01/18 04:07:27;;;;;;;12.18;3.47;;;9.30;84.80;;;;;;5065687;28;20016;-80
2022/01/18 04:09:53;;;;;;;13.85;3.55;;;9.20;84.70;;;;;;5069893;28;20158;-81
2022/01/18 04:12:18;;;;;;;16.42;3.50;;;9.20;84.70;;;;;;5069547;28;20101;-80
2022/01/18 04:14:44;;;;;;;19.48;3.10;;;9.30;84.70;;;;;;5064095;28;20025;-80
2022/01/18 04:27:47;;;;;;;13.48;3.03;;;9.20;84.70;;;;;;5067994;28;20438;-82
2022/01/18 04:30:12;;;;;;;10.10;3.30;;;9.10;84.60;;;;;;5068492;28;20028;-82
2022/01/18 04:32:38;;;;;;;8.27;2.92;;;9.10;84.80;;;;;;5063227;28;20041;-82
2022/01/18 04:35:04;;;;;;;10.10;3.35;;;9.10;84.90;;;;;;5070362;28;20031;-80
2022/01/18 04:37:30;;;;;;;12.60;3.40;;;9.00;84.90;;;;;;5059241;28;20047;-79
2022/01/18 04:39:57;;;;;;;12.77;3.45;;;9.00;84.90;;;;;;5070080;28;20013;-79
2022/01/18 04:42:48;;;;;;;12.35;3.50;;;9.00;85.00;;;;;;5053119;28;20029;-78
2022/01/18 04:50:42;;;;;;;11.40;3.35;;;9.00;85.00;;;;;;5066305;28;20115;-78
2022/01/18 04:53:07;;;;;;;12.52;3.50;;;9.00;85.00;;;;;;5064516;28;20044;-79
2022/01/18 04:55:35;;;;;;;8.18;3.15;;;8.90;85.00;;;;;;5067306;28;20150;-79
2022/01/18 04:58:00;;;;;;;10.10;3.33;;;8.90;85.00;;;;;;5068438;28;20472;-79
2022/01/18 05:00:26;;;;;;;11.25;2.95;;;8.90;85.10;;;;;;5062440;28;20035;-82
2022/01/18 05:02:53;;;;;;;6.70;2.50;;;8.90;85.10;;;;;;5067275;28;20031;-81
2022/01/18 05:05:31;;;;;;;10.07;3.17;;;8.90;85.20;;;;;;5067882;28;20035;-81
2022/01/18 05:08:04;;;;;;;8.05;2.92;;;8.90;85.10;;;;;;5056439;28;20031;-80
2022/01/18 05:10:30;;;;;;;8.25;2.97;;;8.90;85.20;;;;;;5067741;28;20012;-81
2022/01/18 05:12:57;;;;;;;7.28;2.92;;;8.90;85.20;;;;;;5062941;28;20391;-81
2022/01/18 05:23:27;;;;;;;6.50;2.70;;;8.90;85.10;;;;;;5067574;28;20105;-81
2022/01/18 05:25:53;;;;;;;5.43;2.40;;;8.80;85.10;;;;;;5063332;28;20100;-81
2022/01/18 05:28:18;;;;;;;8.70;2.83;;;8.90;85.20;;;;;;5071804;28;20159;-80
2022/01/18 05:30:44;;;;;;;10.95;2.70;;;8.90;85.10;;;;;;5062729;28;20063;-81
2022/01/18 05:33:09;;;;;;;6.75;2.17;;;8.90;85.00;;;;;;5063742;28;20060;-83
2022/01/18 05:35:36;;;;;;;7.50;2.38;;;8.90;85.00;;;;;;5061108;28;20020;-82
2022/01/18 05:38:01;;;;;;;7.05;2.92;;;8.90;85.00;;;;;;5056601;28;20028;-84
2022/01/18 05:40:27;;;;;;;8.57;2.95;;;8.90;84.90;;;;;;5067606;28;20467;-85
2022/01/18 05:42:53;;;;;;;9.95;3.38;;;8.80;85.00;;;;;;5068676;28;20036;-86
2022/01/18 05:45:19;;;;;;;8.40;3.00;;;8.80;85.10;;;;;;5062430;28;20040;-81
2022/01/18 05:47:45;;;;;;;8.68;3.00;;;8.80;85.20;;;;;;5069905;28;20098;-81
2022/01/18 05:50:12;;;;;;;7.85;3.05;;;8.80;85.10;;;;;;5058366;28;20042;-79
2022/01/18 05:52:38;;;;;;;6.93;3.00;;;8.70;85.00;;;;;;5068765;28;20093;-81
2022/01/18 05:55:04;;;;;;;7.90;2.88;;;8.70;85.10;;;;;;5067559;28;20475;-81
2022/01/18 05:57:30;;;;;;;7.55;2.50;;;8.80;85.20;;;;;;5069233;28;20103;-81
2022/01/18 06:00:02;;;;;;;6.40;2.85;;;8.70;85.20;;;;;;5068238;28;20116;-81
2022/01/18 06:03:00;;;;;;;5.50;2.15;;;8.70;85.10;;;;;;5065019;28;20024;-80
2022/01/18 06:07:59;;;;;;;8.60;3.00;;;8.70;85.20;;;;;;5063636;28;20027;-80
2022/01/18 06:10:25;;;;;;;6.82;2.80;;;8.70;85.30;;;;;;5063611;28;20029;-80
2022/01/18 06:12:50;;;;;;;10.35;3.05;;;8.70;85.20;;;;;;5067877;28;20032;-80
2022/01/18 06:15:16;;;;;;;5.35;2.80;;;8.80;85.20;;;;;;5067265;28;20025;-81
2022/01/18 06:17:41;;;;;;;8.00;3.15;;;8.70;85.10;;;;;;5067180;28;20039;-81
2022/01/18 06:20:08;;;;;;;6.70;2.85;;;8.80;85.10;;;;;;5065624;28;20075;-81
2022/01/18 06:22:33;;;;;;;7.22;3.03;;;8.80;85.00;;;;;;5054423;28;20021;-80
2022/01/18 06:24:59;;;;;;;6.95;2.70;;;8.70;85.00;;;;;;5069836;28;20502;-79
2022/01/18 06:27:25;;;;;;;8.20;3.38;;;8.70;85.10;;;;;;5068896;28;20141;-79
2022/01/18 06:29:52;;;;;;;7.82;2.80;;;8.70;85.10;;;;;;5063019;28;20020;-79
2022/01/18 06:32:17;;;;;;;6.63;2.70;;;8.80;85.10;;;;;;5065840;28;20049;-80
2022/01/18 06:34:43;;;;;;;5.82;2.70;;;8.80;85.00;;;;;;5066052;28;20075;-79
2022/01/18 06:37:09;;;;;;;8.20;2.58;;;8.80;84.80;;;;;;5062638;28;20076;-79
2022/01/18 06:39:35;;;;;;;7.70;3.17;;;8.80;84.80;;;;;;5081210;28;20394;-82
2022/01/18 06:42:00;;;;;;;8.95;2.90;;;8.80;84.90;;;;;;5062729;28;20471;-82
2022/01/18 06:44:26;;;;;;;7.72;3.05;;;8.80;84.90;;;;;;5067332;28;20024;-80
2022/01/18 06:46:53;;;;;;;7.28;2.70;;;8.80;84.90;;;;;;5075532;28;20131;-81
2022/01/18 06:49:18;;;;;;;8.98;3.00;;;8.80;84.80;;;;;;5059500;28;20021;-81
2022/01/18 06:51:44;;;;;;;7.85;2.95;;;8.80;84.80;;;;;;5062963;28;20063;-81
2022/01/18 06:54:14;;;;;;;6.75;2.70;;;8.80;84.70;;;;;;5072500;28;20099;-79
2022/01/18 06:56:46;;;;;;;7.93;3.10;;;8.80;84.50;;;;;;5071797;28;20028;-79
2022/01/18 06:59:12;;;;;;;10.70;3.40;;;8.80;84.50;;;;;;5072853;28;20027;-79
2022/01/18 07:01:37;;;;;;;6.72;3.10;;;8.80;84.50;;;;;;5057973;28;20638;-78
2022/01/18 07:04:03;;;;;;;9.60;3.30;;;8.80;84.50;;;;;;5083165;28;20105;-79
2022/01/18 07:06:29;;;;;;;10.13;3.30;;;8.80;84.50;;;;;;5078339;28;20039;-78
2022/01/18 07:08:54;;;;;;;10.02;3.20;;;8.80;84.50;;;;;;5066802;28;20111;-79
2022/01/18 07:11:20;;;;;;;9.63;3.88;;;8.70;84.60;;;;;;5063695;28;20057;-81
2022/01/18 07:13:46;;;;;;;7.68;3.60;;;8.70;84.70;;;;;;5066479;28;20036;-79
2022/01/18 07:16:12;;;;;;;6.30;3.25;;;8.60;84.70;;;;;;5069848;28;20032;-79
2022/01/18 07:18:39;;;;;;;8.30;3.47;;;8.60;84.70;;;;;;5068990;28;20023;-79
2022/01/18 07:21:04;;;;;;;7.72;3.15;;;8.60;84.70;;;;;;5071406;28;20103;-80
2022/01/18 07:23:30;;;;;;;8.88;3.47;;;8.60;84.90;;;;;;5068252;28;20132;-79
2022/01/18 07:25:56;;;;;;;6.82;2.85;;;8.60;84.90;;;;;;5069033;28;21675;-78
2022/01/18 07:28:21;;;;;;;7.00;3.30;;;8.60;84.90;;;;;;5072972;28;20024;-78
2022/01/18 07:30:48;;;;;;;8.50;3.70;;;8.60;84.90;;;;;;5061519;28;20017;-77
2022/01/18 07:33:15;;;;;;;7.85;3.30;;;8.60;85.00;;;;;;5065400;28;20414;-77
2022/01/18 07:35:42;;;;;;;9.23;3.40;;;8.60;85.10;;;;;;5059953;28;20534;-77
2022/01/18 07:38:12;;;;;;;8.07;3.03;;;8.50;85.10;;;;;;5063626;28;20532;-78
2022/01/18 07:40:38;;;;;;;9.20;3.45;;;8.50;85.10;;;;;;5066750;28;20115;-77
2022/01/18 07:43:04;;;;;;;5.55;2.90;;;8.50;85.10;;;;;;5073072;28;20459;-79
2022/01/18 07:45:31;;;;;;;8.50;3.38;;;8.50;85.10;;;;;;5073045;28;20025;-79
2022/01/18 07:47:57;;;;;;;5.57;3.03;;;8.50;85.20;;;;;;5079634;28;20024;-78
2022/01/18 07:50:24;;;;;;;6.78;2.83;;;8.50;85.10;;;;;;5078005;28;20039;-77
2022/01/18 07:52:49;;;;;;;6.07;3.00;;;8.50;85.10;;;;;;5077832;28;20054;-76
2022/01/18 07:55:15;;;;;;;5.85;3.00;;;8.50;85.10;;;;;;5072560;28;20115;-76
2022/01/18 07:57:42;;;;;;;8.60;2.83;;;8.40;85.20;;;;;;5078480;28;20038;-77
2022/01/18 08:00:13;;;;;;;8.00;2.60;;;8.40;85.20;;;;;;5081232;28;20475;-76
2022/01/18 08:02:39;;;;;;;10.23;2.90;;;8.40;85.20;;;;;;5075213;28;20035;-79
2022/01/18 08:05:07;;;;;;;9.25;3.17;;;8.40;85.20;;;;;;5078514;28;20023;-77
2022/01/18 08:07:33;;;;;;;10.18;2.83;;;8.40;85.20;;;;;;5073612;28;20072;-78
2022/01/18 08:09:59;;;;;;;13.65;3.13;;;8.40;85.10;;;;;;5065997;28;20704;-81
2022/01/18 08:12:24;;;;;;;12.50;3.60;;;8.40;84.90;;;;;;5069131;28;20123;-79
2022/01/18 08:14:53;;;;;;;7.60;2.95;;;8.30;84.80;;;;;;5065184;28;20029;-78
2022/01/18 08:17:19;;;;;;;7.40;3.13;;;8.20;84.90;;;;;;5056780;28;20096;-77
2022/01/18 08:19:45;;;;;;;6.75;3.30;;;8.30;85.00;;;;;;5063570;28;20108;-80
2022/01/18 08:22:10;;;;;;;7.80;2.60;;;8.30;85.00;;;;;;5068460;28;20020;-79
2022/01/18 08:24:37;;;;;;;12.68;3.78;;;8.30;85.00;;;;;;5072675;28;20024;-78
2022/01/18 08:27:03;;;;;;;12.88;3.40;;;8.30;85.10;;;;;;5083508;28;20545;-78
2022/01/18 08:29:30;;;;;;;11.70;3.10;;;8.30;85.10;;;;;;5064192;28;20028;-84
2022/01/18 08:31:55;;;;;;;24.55;3.97;;;8.30;85.00;;;;;;5069886;28;20509;-90
2022/01/18 08:34:21;;;;;;;10.52;3.03;;;8.20;85.00;;;;;;5061586;28;20099;-81
2022/01/18 08:36:47;;;;;;;17.15;3.50;;;8.30;85.10;;;;;;5070799;28;20028;-83
2022/01/18 08:39:13;;;;;;;40.88;4.00;;;8.20;85.00;;;;;;5063551;28;20172;-80
2022/01/18 08:41:38;;;;;;;19.17;3.50;;;8.20;85.10;;;;;;5070857;28;20024;-83
2022/01/18 08:44:04;;;;;;;23.65;3.10;;;8.10;85.10;;;;;;5060873;28;20020;-81
2022/01/18 08:46:30;;;;;;;33.42;3.55;;;8.20;85.30;;;;;;5066645;28;20053;-77
2022/01/18 08:48:56;;;;;;;11.18;2.72;;;8.10;85.10;;;;;;5065342;28;20105;-80
2022/01/18 08:51:22;;;;;;;12.82;3.60;;;8.10;85.10;;;;;;5065235;28;20504;-78
2022/01/18 08:53:50;;;;;;;6.90;3.08;;;8.00;85.30;;;;;;5063008;28;20153;-80
2022/01/18 08:56:18;;;;;;;24.23;4.13;;;8.10;85.50;;;;;;5066423;28;20024;-79
2022/01/18 08:58:44;;;;;;;12.90;4.07;;;8.10;85.50;;;;;;5066516;28;20073;-80
2022/01/18 09:01:10;;;;;;;13.35;4.07;;;8.20;85.40;;;;;;5065772;28;20699;-80
2022/01/18 09:03:37;;;;;;;19.67;3.40;;;8.20;85.30;;;;;;5065891;28;20028;-80
2022/01/18 09:06:04;;;;;;;14.52;4.18;;;8.10;85.20;;;;;;5063941;28;20518;-80
2022/01/18 09:08:31;;;;;;;13.80;3.70;;;8.10;85.20;;;;;;5063682;28;20059;-81
2022/01/18 09:10:56;;;;;;;18.92;3.90;;;8.00;85.40;;;;;;5067663;28;20021;-77
2022/01/18 09:13:22;;;;;;;13.40;3.15;;;8.10;85.50;;;;;;5069121;28;20025;-81
2022/01/18 09:15:49;;;;;;;12.02;3.53;;;8.00;85.50;;;;;;5073712;28;20016;-81
2022/01/18 09:18:14;;;;;;;14.45;3.90;;;8.00;85.50;;;;;;5067441;28;20028;-80
2022/01/18 09:20:40;;;;;;;10.43;3.63;;;8.00;85.40;;;;;;5070891;28;20095;-79
2022/01/18 09:23:06;;;;;;;14.02;3.30;;;7.90;85.30;;;;;;5090608;28;20031;-80
2022/01/18 09:25:32;;;;;;;18.92;2.83;;;7.90;85.40;;;;;;5073247;28;20020;-79
2022/01/18 09:27:59;;;;;;;20.65;3.40;;;7.90;85.40;;;;;;5074419;28;20012;-79
2022/01/18 09:30:27;;;;;;;74.40;4.85;;;7.90;85.40;;;;;;5069896;28;20032;-82
2022/01/18 09:32:54;;;;;;;6.30;1.92;;;7.90;85.40;;;;;;5081168;28;20037;-85
2022/01/18 09:35:20;;;;;;;7.47;1.98;;;7.80;85.50;;;;;;5066258;28;20035;-83
2022/01/18 09:37:46;;;;;;;14.30;1.90;;;7.70;85.50;;;;;;5068422;28;20047;-80
2022/01/18 09:40:15;;;;;;;31.48;2.60;;;7.70;85.60;;;;;;5075021;28;20452;-80
2022/01/18 09:42:43;;;;;;;9.00;2.35;;;7.70;85.70;;;;;;5066936;28;20025;-76
2022/01/18 09:45:12;;;;;;;10.45;2.20;;;7.70;85.70;;;;;;5060913;28;20031;-79
2022/01/18 09:47:41;;;;;;;12.82;2.17;;;7.70;85.70;;;;;;5062969;28;20028;-81
2022/01/18 09:50:09;;;;;;;9.20;2.40;;;7.70;85.80;;;;;;5072974;28;20453;-77
2022/01/18 09:52:36;;;;;;;7.35;2.60;;;7.80;85.90;;;;;;5070703;28;20570;-76
2022/01/18 09:55:02;;;;;;;12.60;2.33;;;7.80;85.80;;;;;;5070049;28;20047;-77
2022/01/18 09:57:30;;;;;;;20.25;3.15;;;7.80;85.70;;;;;;5073088;28;20021;-77
2022/01/18 09:59:56;;;;;;;35.35;3.47;;;7.70;85.40;;;;;;5070012;28;20108;-77
2022/01/18 10:02:21;;;;;;;6.57;2.10;;;7.70;85.50;;;;;;5069433;28;20123;-81
2022/01/18 10:04:49;;;;;;;25.13;2.90;;;7.60;85.50;;;;;;5072908;28;20664;-81
2022/01/18 10:07:14;;;;;;;53.42;3.75;;;7.50;85.50;;;;;;5074074;28;20024;-80
2022/01/18 10:09:40;;;;;;;6.05;1.90;;;7.40;85.60;;;;;;5066888;28;20023;-79
2022/01/18 10:12:10;;;;;;;26.27;2.72;;;7.40;85.80;;;;;;5070310;28;20029;-79
2022/01/18 10:14:39;;;;;;;14.07;2.50;;;7.30;85.90;;;;;;5061794;28;20021;-81
2022/01/18 10:17:06;;;;;;;7.05;2.30;;;7.40;86.00;;;;;;5056009;28;20057;-82
2022/01/18 10:19:49;;;;;;;18.20;2.63;;;7.40;85.90;;;;;;5065255;28;20077;-79
2022/01/18 10:22:23;;;;;;;23.75;2.90;;;7.40;85.90;;;;;;5067295;28;20859;-80
2022/01/18 10:24:49;;;;;;;10.75;2.28;;;7.50;85.90;;;;;;5071363;28;20123;-78
2022/01/18 10:27:14;;;;;;;48.28;4.15;;;7.50;85.90;;;;;;5070956;28;20458;-77
2022/01/18 10:29:48;;;;;;;40.28;4.13;;;7.50;85.60;;;;;;5064944;28;20050;-78
2022/01/18 10:32:19;;;;;;;18.45;2.92;;;7.40;85.80;;;;;;5070287;28;20048;-79
2022/01/18 10:37:18;;;;;;;21.88;2.90;;;7.40;85.90;;;;;;5065595;28;20064;-78
2022/01/18 10:39:53;;;;;;;12.90;3.00;;;7.40;85.90;;;;;;5068049;28;20021;-80
2022/01/18 10:42:28;;;;;;;8.35;2.58;;;7.40;86.00;;;;;;5064642;28;20128;-78
2022/01/18 10:45:31;;;;;;;19.13;3.35;;;7.30;86.00;;;;;;5067309;28;20104;-80
2022/01/18 10:48:18;;;;;;;11.63;3.17;;;7.30;86.10;;;;;;5075252;28;20419;-78
2022/01/18 10:50:46;;;;;;;9.70;2.42;;;7.40;86.20;;;;;;5061408;28;20032;-80
2022/01/18 10:53:22;;;;;;;18.33;2.97;;;7.40;86.20;;;;;;5063602;28;20123;-81
2022/01/18 10:56:14;;;;;;;7.15;2.10;;;7.40;86.20;;;;;;5069089;28;20361;-81
2022/01/18 10:58:48;;;;;;;;;;;7.50;86.20;;;;;;5063559;28;20384;-81
2022/01/18 11:01:18;;;;;;;26.80;3.70;;;7.50;86.00;;;;;;5064481;28;20010;-79
2022/01/18 11:04:14;;;;;;;32.28;3.40;;;7.40;86.00;;;;;;5065892;28;20208;-82
2022/01/18 11:06:43;;;;;;;73.20;4.35;;;7.30;86.20;;;;;;5067169;28;20063;-78
2022/01/18 11:09:14;;;;;;;6.90;2.00;;;7.30;86.20;;;;;;5068643;28;20693;-78
2022/01/18 11:11:47;;;;;;;7.60;2.08;;;7.20;86.30;;;;;;5081047;28;20040;-78
2022/01/18 11:14:17;;;;;;;13.30;2.70;;;7.20;86.30;;;;;;5063967;28;20032;-78
2022/01/18 11:16:44;;;;;;;4.43;1.90;;;7.20;86.30;;;;;;5068293;28;20036;-76
2022/01/18 11:19:36;;;;;;;6.22;2.10;;;7.20;86.50;;;;;;5069489;28;20696;-78
2022/01/18 11:22:10;;;;;;;50.85;4.35;;;7.20;86.50;;;;;;5066326;28;20448;-79
2022/01/18 11:24:38;;;;;;;18.90;3.05;;;7.30;86.50;;;;;;5072490;28;20033;-78
2022/01/18 11:27:10;;;;;;;7.10;2.38;;;7.30;86.60;;;;;;5075545;28;20039;-79
2022/01/18 11:29:36;;;;;;;7.88;2.30;;;7.30;86.60;;;;;;5067298;28;20415;-77
2022/01/18 11:32:02;;;;;;;24.60;3.15;;;7.40;86.70;;;;;;5068105;28;20097;-79
2022/01/18 11:34:55;;;;;;;10.73;2.95;;;7.40;86.40;;;;;;5067764;28;20647;-78
2022/01/18 11:37:45;;;;;;;4.60;1.63;;;7.30;86.40;;;;;;5063507;28;20028;-77
2022/01/18 11:40:17;;;;;;;5.43;2.45;;;7.30;86.60;;;;;;5069117;28;20094;-79
2022/01/18 11:42:52;;;;;;;6.65;2.80;;;7.30;87.20;;;;;;5070073;28;20054;-80
2022/01/18 11:45:37;;;;;;;5.05;2.90;;;7.30;86.50;;;;;;5068981;28;20020;-79
2022/01/18 11:48:19;;;;;;;3.50;1.95;;;7.40;86.60;;;;;;5069265;28;20020;-78
2022/01/18 11:51:00;;;;;;;5.32;2.53;;;7.50;86.50;;;;;;5068483;28;20102;-78
2022/01/18 11:53:46;;;;;;;3.17;2.00;;;7.50;86.30;;;;;;5067529;28;20549;-78
2022/01/18 11:56:33;;;;;;;8.77;3.20;;;7.50;86.30;;;;;;5063030;28;20433;-79
2022/01/18 11:59:17;;;;;;;4.78;2.83;;;7.60;86.30;;;;;;5060508;28;20083;-80
2022/01/18 12:01:54;;;;;;;6.35;3.10;;;7.60;86.30;;;;;;5064919;28;20031;-79
2022/01/18 12:04:45;;;;;;;11.57;3.90;;;7.60;86.20;;;;;;5060883;28;20082;-77
2022/01/18 12:07:31;;;;;;;6.38;3.20;;;7.60;86.10;;;;;;5065058;28;20036;-82
2022/01/18 12:09:57;;;;;;;5.82;3.40;;;7.60;86.20;;;;;;5059984;28;20460;-82
2022/01/18 12:12:46;;;;;;;8.27;3.90;;;7.60;86.10;;;;;;5069362;28;20039;-79
2022/01/18 12:15:18;;;;;;;10.65;3.72;;;7.60;86.30;;;;;;5065271;28;20031;-78
2022/01/18 12:18:15;;;;;;;8.70;3.97;;;7.70;86.20;;;;;;5065024;28;20028;-78
2022/01/18 12:20:45;;;;;;;11.68;4.18;;;7.70;86.20;;;;;;5068512;28;20068;-79
2022/01/18 12:23:23;;;;;;;13.20;4.40;;;7.80;86.20;;;;;;5062248;28;20391;-81
2022/01/18 12:26:28;;;;;;;10.93;3.92;;;7.70;86.10;;;;;;5070714;28;20024;-80
2022/01/18 12:29:19;;;;;;;8.85;4.20;;;7.80;86.20;;;;;;5061597;28;20051;-78
2022/01/18 12:34:44;;;;;;;8.50;3.80;;;7.70;86.00;;;;;;5068762;28;20028;-78
2022/01/18 12:37:24;;;;;;;9.52;3.88;;;7.80;86.00;;;;;;5092533;28;20081;-80
2022/01/18 12:39:50;;;;;;;9.88;3.42;;;7.70;85.90;;;;;;5074859;28;20087;-78
2022/01/18 12:45:10;;;;;;;9.82;4.03;;;7.70;86.00;;;;;;5071938;28;20028;-78
2022/01/18 12:47:41;;;;;;;12.85;5.03;;;7.80;86.10;;;;;;5067611;28;20024;-80
2022/01/18 12:50:09;;;;;;;11.48;4.95;;;7.80;86.00;;;;;;5070824;28;20437;-82
2022/01/18 12:52:53;;;;;;;5.88;2.65;;;7.80;86.00;;;;;;5071752;28;20036;-81
2022/01/18 12:55:45;;;;;;;7.43;3.55;;;7.80;85.90;;;;;;5068329;28;20394;-81
2022/01/18 12:58:24;;;;;;;7.40;3.75;;;7.80;86.00;;;;;;5067539;28;20025;-79
2022/01/18 13:01:05;;;;;;;7.38;3.80;;;7.90;85.90;;;;;;5064507;28;20035;-86
2022/01/18 13:03:39;;;;;;;6.07;3.13;;;7.90;85.90;;;;;;5069249;28;20032;-81
2022/01/18 13:06:11;;;;;;;10.98;4.03;;;8.00;85.90;;;;;;5071991;28;20512;-79
2022/01/18 13:08:50;;;;;;;9.13;4.13;;;8.00;85.80;;;;;;5075818;28;20032;-78
2022/01/18 13:11:30;;;;;;;9.73;4.18;;;8.10;85.70;;;;;;5066032;28;20502;-80
2022/01/18 13:14:02;;;;;;;11.02;4.13;;;8.20;85.80;;;;;;5060459;28;20028;-81
2022/01/18 13:25:03;;;;;;;7.72;3.97;;;8.20;85.40;;;;;;5075044;28;20078;-79
2022/01/18 13:27:40;;;;;;;10.75;4.55;;;8.30;85.60;;;;;;5069050;28;20047;-83
2022/01/18 13:30:12;;;;;;;8.57;3.75;;;8.30;85.40;;;;;;5060742;28;20387;-79
2022/01/18 13:32:38;;;;;;;8.05;3.75;;;8.40;85.50;;;;;;5061702;28;20483;-78
2022/01/18 13:35:05;;;;;;;7.85;3.70;;;8.40;85.50;;;;;;5058997;28;20028;-78
2022/01/18 13:37:34;;;;;;;11.95;4.40;;;8.50;85.50;;;;;;5065171;28;20047;-80
2022/01/18 13:40:06;;;;;;;8.23;3.92;;;8.50;85.40;;;;;;5065550;28;20016;-80
2022/01/18 13:42:43;;;;;;;8.93;4.03;;;8.50;85.30;;;;;;5062360;28;20029;-79
2022/01/18 13:45:13;;;;;;;8.07;3.75;;;8.60;85.20;;;;;;5056263;28;20028;-81
2022/01/18 13:47:39;;;;;;;9.30;4.30;;;8.50;85.10;;;;;;5065035;28;20028;-78
2022/01/18 13:50:05;;;;;;;12.00;5.00;;;8.50;85.10;;;;;;5063364;28;20532;-81
2022/01/18 13:52:31;;;;;;;14.70;5.20;;;8.50;85.10;;;;;;5065982;28;20047;-81
2022/01/18 13:54:57;;;;;;;12.73;4.88;;;8.50;85.10;;;;;;5056597;28;20025;-79
2022/01/18 13:57:25;;;;;;;15.55;5.63;;;8.60;85.20;;;;;;5053408;28;20040;-80
2022/01/18 13:59:52;;;;;;;15.43;5.50;;;8.50;85.00;;;;;;5061393;28;20484;-82
2022/01/18 14:02:23;;;;;;;15.38;5.50;;;8.50;85.00;;;;;;5062429;28;20029;-81
2022/01/18 14:05:09;;;;;;;13.25;4.82;;;8.50;85.00;;;;;;5063973;28;20025;-79
2022/01/18 14:07:35;;;;;;;18.40;5.53;;;8.50;85.00;;;;;;5064660;28;20027;-82
2022/01/18 14:10:02;;;;;;;12.80;4.47;;;8.50;85.00;;;;;;5062928;28;20020;-79
2022/01/18 14:12:30;;;;;;;9.90;4.00;;;8.50;85.00;;;;;;5059939;28;20109;-81
2022/01/18 14:14:56;;;;;;;11.88;4.25;;;8.50;85.00;;;;;;5059301;28;20079;-80
2022/01/18 14:17:21;;;;;;;13.40;4.80;;;8.60;84.80;;;;;;5056894;28;20434;-83
2022/01/18 14:19:48;;;;;;;9.32;3.95;;;8.60;84.70;;;;;;5063537;28;20439;-80
2022/01/18 14:22:21;;;;;;;14.35;4.93;;;8.60;84.70;;;;;;5065153;28;20539;-81
2022/01/18 14:25:01;;;;;;;12.70;4.70;;;8.60;84.70;;;;;;5065597;28;20032;-81
2022/01/18 14:27:29;;;;;;;14.15;5.18;;;8.50;84.60;;;;;;5064445;28;20024;-83
2022/01/18 14:29:57;;;;;;;11.43;4.00;;;8.50;84.60;;;;;;5054697;28;20024;-79